sensor_id;sensor_type;location;lat;lon;timestamp;P1;durP1;ratioP1;P2;durP2;ratioP2
17345;SDS011;8790;53.590;10.002;2022-08-21T00:01:58;6.97;;;3.97;;
17345;SDS011;8790;53.590;10.002;2022-08-21T00:04:31;6.70;;;4.00;;
17345;SDS011;8790;53.590;10.002;2022-08-21T00:07:03;5.75;;;3.95;;
17345;SDS011;8790;53.590;10.002;2022-08-21T00:09:35;6.65;;;4.05;;
17345;SDS011;8790;53.590;10.002;2022-08-21T00:12:07;6.30;;;4.10;;
17345;SDS011;8790;53.590;10.002;2022-08-21T00:14:39;4.78;;;4.00;;
17345;SDS011;8790;53.590;10.002;2022-08-21T00:17:11;5.65;;;4.10;;
17345;SDS011;8790;53.590;10.002;2022-08-21T00:19:44;5.03;;;3.65;;
17345;SDS011;8790;53.590;10.002;2022-08-21T00:22:16;8.18;;;4.00;;
17345;SDS011;8790;53.590;10.002;2022-08-21T00:24:48;6.33;;;3.97;;
17345;SDS011;8790;53.590;10.002;2022-08-21T00:27:19;6.97;;;4.50;;
17345;SDS011;8790;53.590;10.002;2022-08-21T00:29:52;7.45;;;4.35;;
17345;SDS011;8790;53.590;10.002;2022-08-21T00:32:25;7.05;;;4.20;;
17345;SDS011;8790;53.590;10.002;2022-08-21T00:35:00;7.28;;;4.40;;
17345;SDS011;8790;53.590;10.002;2022-08-21T00:37:31;6.28;;;3.90;;
17345;SDS011;8790;53.590;10.002;2022-08-21T00:40:04;5.07;;;4.00;;
17345;SDS011;8790;53.590;10.002;2022-08-21T00:42:37;5.90;;;4.35;;
17345;SDS011;8790;53.590;10.002;2022-08-21T00:45:09;6.20;;;4.38;;
17345;SDS011;8790;53.590;10.002;2022-08-21T00:47:43;5.70;;;4.30;;
17345;SDS011;8790;53.590;10.002;2022-08-21T00:50:16;6.67;;;4.27;;
17345;SDS011;8790;53.590;10.002;2022-08-21T00:52:50;7.40;;;4.75;;
17345;SDS011;8790;53.590;10.002;2022-08-21T00:55:23;5.93;;;4.88;;
17345;SDS011;8790;53.590;10.002;2022-08-21T00:57:56;7.60;;;4.60;;
17345;SDS011;8790;53.590;10.002;2022-08-21T01:00:31;6.30;;;4.80;;
17345;SDS011;8790;53.590;10.002;2022-08-21T01:03:05;6.97;;;4.87;;
17345;SDS011;8790;53.590;10.002;2022-08-21T01:05:40;6.67;;;4.90;;
17345;SDS011;8790;53.590;10.002;2022-08-21T01:08:13;5.38;;;4.30;;
17345;SDS011;8790;53.590;10.002;2022-08-21T01:10:46;6.87;;;4.40;;
17345;SDS011;8790;53.590;10.002;2022-08-21T01:13:18;7.35;;;4.75;;
17345;SDS011;8790;53.590;10.002;2022-08-21T01:15:53;7.25;;;4.72;;
17345;SDS011;8790;53.590;10.002;2022-08-21T01:18:28;7.43;;;4.83;;
17345;SDS011;8790;53.590;10.002;2022-08-21T01:21:02;7.07;;;4.80;;
17345;SDS011;8790;53.590;10.002;2022-08-21T01:23:40;8.35;;;4.70;;
17345;SDS011;8790;53.590;10.002;2022-08-21T01:26:14;7.47;;;4.97;;
17345;SDS011;8790;53.590;10.002;2022-08-21T01:28:49;8.27;;;4.53;;
17345;SDS011;8790;53.590;10.002;2022-08-21T01:31:26;7.70;;;4.60;;
17345;SDS011;8790;53.590;10.002;2022-08-21T01:33:59;5.40;;;4.70;;
17345;SDS011;8790;53.590;10.002;2022-08-21T01:36:32;8.13;;;4.97;;
17345;SDS011;8790;53.590;10.002;2022-08-21T01:39:05;6.50;;;4.57;;
17345;SDS011;8790;53.590;10.002;2022-08-21T01:41:37;5.97;;;4.57;;
17345;SDS011;8790;53.590;10.002;2022-08-21T01:44:09;7.25;;;5.07;;
17345;SDS011;8790;53.590;10.002;2022-08-21T01:46:40;7.23;;;5.07;;
17345;SDS011;8790;53.590;10.002;2022-08-21T01:49:12;6.30;;;5.10;;
17345;SDS011;8790;53.590;10.002;2022-08-21T01:51:45;6.73;;;4.90;;
17345;SDS011;8790;53.590;10.002;2022-08-21T01:54:17;6.33;;;4.50;;
17345;SDS011;8790;53.590;10.002;2022-08-21T01:56:50;8.32;;;5.10;;
17345;SDS011;8790;53.590;10.002;2022-08-21T01:59:24;8.23;;;5.07;;
17345;SDS011;8790;53.590;10.002;2022-08-21T02:01:57;5.80;;;4.95;;
17345;SDS011;8790;53.590;10.002;2022-08-21T02:04:28;7.25;;;5.00;;
17345;SDS011;8790;53.590;10.002;2022-08-21T02:07:02;7.10;;;4.75;;
17345;SDS011;8790;53.590;10.002;2022-08-21T02:09:34;7.40;;;5.10;;
17345;SDS011;8790;53.590;10.002;2022-08-21T02:12:06;7.30;;;5.07;;
17345;SDS011;8790;53.590;10.002;2022-08-21T02:14:38;6.75;;;4.47;;
17345;SDS011;8790;53.590;10.002;2022-08-21T02:17:09;9.33;;;5.37;;
17345;SDS011;8790;53.590;10.002;2022-08-21T02:19:41;7.47;;;5.03;;
17345;SDS011;8790;53.590;10.002;2022-08-21T02:22:14;7.38;;;5.28;;
17345;SDS011;8790;53.590;10.002;2022-08-21T02:24:46;7.57;;;5.10;;
17345;SDS011;8790;53.590;10.002;2022-08-21T02:27:18;7.90;;;5.07;;
17345;SDS011;8790;53.590;10.002;2022-08-21T02:29:49;6.68;;;5.00;;
17345;SDS011;8790;53.590;10.002;2022-08-21T02:32:21;9.07;;;5.13;;
17345;SDS011;8790;53.590;10.002;2022-08-21T02:34:53;7.47;;;5.18;;
17345;SDS011;8790;53.590;10.002;2022-08-21T02:37:27;6.85;;;4.75;;
17345;SDS011;8790;53.590;10.002;2022-08-21T02:39:58;7.57;;;4.93;;
17345;SDS011;8790;53.590;10.002;2022-08-21T02:42:30;7.30;;;5.10;;
17345;SDS011;8790;53.590;10.002;2022-08-21T02:45:02;7.00;;;5.40;;
17345;SDS011;8790;53.590;10.002;2022-08-21T02:47:34;7.93;;;5.40;;
17345;SDS011;8790;53.590;10.002;2022-08-21T02:50:06;9.30;;;5.47;;
17345;SDS011;8790;53.590;10.002;2022-08-21T02:52:40;7.60;;;5.67;;
17345;SDS011;8790;53.590;10.002;2022-08-21T02:55:11;9.27;;;5.40;;
17345;SDS011;8790;53.590;10.002;2022-08-21T02:57:43;7.07;;;5.40;;
17345;SDS011;8790;53.590;10.002;2022-08-21T03:00:15;11.90;;;6.00;;
17345;SDS011;8790;53.590;10.002;2022-08-21T03:02:47;7.53;;;5.10;;
17345;SDS011;8790;53.590;10.002;2022-08-21T03:05:20;7.30;;;5.00;;
17345;SDS011;8790;53.590;10.002;2022-08-21T03:07:53;7.88;;;4.68;;
17345;SDS011;8790;53.590;10.002;2022-08-21T03:10:26;7.53;;;4.87;;
17345;SDS011;8790;53.590;10.002;2022-08-21T03:12:57;6.13;;;4.80;;
17345;SDS011;8790;53.590;10.002;2022-08-21T03:15:30;8.63;;;5.80;;
17345;SDS011;8790;53.590;10.002;2022-08-21T03:18:02;7.43;;;5.30;;
17345;SDS011;8790;53.590;10.002;2022-08-21T03:20:35;10.47;;;5.30;;
17345;SDS011;8790;53.590;10.002;2022-08-21T03:23:09;10.10;;;5.13;;
17345;SDS011;8790;53.590;10.002;2022-08-21T03:25:41;7.68;;;4.90;;
17345;SDS011;8790;53.590;10.002;2022-08-21T03:28:14;6.30;;;4.63;;
17345;SDS011;8790;53.590;10.002;2022-08-21T03:30:51;7.30;;;5.20;;
17345;SDS011;8790;53.590;10.002;2022-08-21T03:33:24;7.35;;;5.00;;
17345;SDS011;8790;53.590;10.002;2022-08-21T03:35:57;8.77;;;5.13;;
17345;SDS011;8790;53.590;10.002;2022-08-21T03:38:32;7.53;;;5.17;;
17345;SDS011;8790;53.590;10.002;2022-08-21T03:41:05;6.53;;;5.10;;
17345;SDS011;8790;53.590;10.002;2022-08-21T03:43:38;6.17;;;5.10;;
17345;SDS011;8790;53.590;10.002;2022-08-21T03:46:10;6.37;;;4.93;;
17345;SDS011;8790;53.590;10.002;2022-08-21T03:48:42;8.10;;;5.60;;
17345;SDS011;8790;53.590;10.002;2022-08-21T03:51:14;8.67;;;5.60;;
17345;SDS011;8790;53.590;10.002;2022-08-21T03:53:47;7.10;;;5.20;;
17345;SDS011;8790;53.590;10.002;2022-08-21T03:56:19;8.70;;;5.53;;
17345;SDS011;8790;53.590;10.002;2022-08-21T03:58:51;5.43;;;4.77;;
17345;SDS011;8790;53.590;10.002;2022-08-21T04:01:23;6.67;;;5.07;;
17345;SDS011;8790;53.590;10.002;2022-08-21T04:03:55;8.87;;;5.70;;
17345;SDS011;8790;53.590;10.002;2022-08-21T04:06:27;6.53;;;5.13;;
17345;SDS011;8790;53.590;10.002;2022-08-21T04:09:00;6.60;;;5.07;;
17345;SDS011;8790;53.590;10.002;2022-08-21T04:11:32;9.17;;;5.53;;
17345;SDS011;8790;53.590;10.002;2022-08-21T04:14:03;6.50;;;5.30;;
17345;SDS011;8790;53.590;10.002;2022-08-21T04:16:35;5.63;;;4.73;;
17345;SDS011;8790;53.590;10.002;2022-08-21T04:19:07;8.63;;;5.37;;
17345;SDS011;8790;53.590;10.002;2022-08-21T04:21:39;6.90;;;5.10;;
17345;SDS011;8790;53.590;10.002;2022-08-21T04:24:13;7.13;;;5.27;;
17345;SDS011;8790;53.590;10.002;2022-08-21T04:26:45;6.97;;;4.97;;
17345;SDS011;8790;53.590;10.002;2022-08-21T04:29:17;7.97;;;5.30;;
17345;SDS011;8790;53.590;10.002;2022-08-21T04:31:49;6.70;;;5.20;;
17345;SDS011;8790;53.590;10.002;2022-08-21T04:34:22;8.60;;;5.00;;
17345;SDS011;8790;53.590;10.002;2022-08-21T04:36:53;7.70;;;5.20;;
17345;SDS011;8790;53.590;10.002;2022-08-21T04:39:26;7.10;;;4.87;;
17345;SDS011;8790;53.590;10.002;2022-08-21T04:41:58;7.43;;;4.90;;
17345;SDS011;8790;53.590;10.002;2022-08-21T04:44:30;6.47;;;5.03;;
17345;SDS011;8790;53.590;10.002;2022-08-21T04:47:02;6.97;;;5.10;;
17345;SDS011;8790;53.590;10.002;2022-08-21T04:49:35;8.63;;;5.23;;
17345;SDS011;8790;53.590;10.002;2022-08-21T04:52:07;9.23;;;5.20;;
17345;SDS011;8790;53.590;10.002;2022-08-21T04:54:41;8.40;;;5.27;;
17345;SDS011;8790;53.590;10.002;2022-08-21T04:57:15;5.80;;;5.03;;
17345;SDS011;8790;53.590;10.002;2022-08-21T04:59:48;6.37;;;4.87;;
17345;SDS011;8790;53.590;10.002;2022-08-21T05:02:22;7.97;;;4.63;;
17345;SDS011;8790;53.590;10.002;2022-08-21T05:04:53;7.70;;;4.93;;
17345;SDS011;8790;53.590;10.002;2022-08-21T05:07:27;7.30;;;5.40;;
17345;SDS011;8790;53.590;10.002;2022-08-21T05:10:02;9.43;;;5.07;;
17345;SDS011;8790;53.590;10.002;2022-08-21T05:12:35;7.97;;;5.20;;
17345;SDS011;8790;53.590;10.002;2022-08-21T05:15:07;8.37;;;5.30;;
17345;SDS011;8790;53.590;10.002;2022-08-21T05:17:39;6.10;;;4.73;;
17345;SDS011;8790;53.590;10.002;2022-08-21T05:20:12;6.53;;;5.03;;
17345;SDS011;8790;53.590;10.002;2022-08-21T05:22:44;7.07;;;4.87;;
17345;SDS011;8790;53.590;10.002;2022-08-21T05:25:18;6.83;;;4.80;;
17345;SDS011;8790;53.590;10.002;2022-08-21T05:27:49;7.57;;;4.93;;
17345;SDS011;8790;53.590;10.002;2022-08-21T05:30:21;7.33;;;4.57;;
17345;SDS011;8790;53.590;10.002;2022-08-21T05:32:55;8.00;;;4.70;;
17345;SDS011;8790;53.590;10.002;2022-08-21T05:35:28;7.20;;;4.40;;
17345;SDS011;8790;53.590;10.002;2022-08-21T05:38:00;8.35;;;5.18;;
17345;SDS011;8790;53.590;10.002;2022-08-21T05:40:34;5.47;;;4.80;;
17345;SDS011;8790;53.590;10.002;2022-08-21T05:43:05;7.67;;;4.80;;
17345;SDS011;8790;53.590;10.002;2022-08-21T05:45:37;6.47;;;4.70;;
17345;SDS011;8790;53.590;10.002;2022-08-21T05:48:10;6.37;;;4.53;;
17345;SDS011;8790;53.590;10.002;2022-08-21T05:50:44;5.73;;;4.30;;
17345;SDS011;8790;53.590;10.002;2022-08-21T05:53:17;7.37;;;4.20;;
17345;SDS011;8790;53.590;10.002;2022-08-21T05:55:51;7.30;;;4.47;;
17345;SDS011;8790;53.590;10.002;2022-08-21T05:58:22;4.70;;;4.20;;
17345;SDS011;8790;53.590;10.002;2022-08-21T06:00:54;7.33;;;4.07;;
17345;SDS011;8790;53.590;10.002;2022-08-21T06:03:27;5.67;;;4.23;;
17345;SDS011;8790;53.590;10.002;2022-08-21T06:06:01;6.80;;;4.10;;
17345;SDS011;8790;53.590;10.002;2022-08-21T06:08:33;5.57;;;4.00;;
17345;SDS011;8790;53.590;10.002;2022-08-21T06:11:07;4.47;;;3.97;;
17345;SDS011;8790;53.590;10.002;2022-08-21T06:13:38;7.10;;;3.70;;
17345;SDS011;8790;53.590;10.002;2022-08-21T06:16:12;5.97;;;3.90;;
17345;SDS011;8790;53.590;10.002;2022-08-21T06:18:45;7.37;;;4.13;;
17345;SDS011;8790;53.590;10.002;2022-08-21T06:21:17;8.98;;;3.72;;
17345;SDS011;8790;53.590;10.002;2022-08-21T06:23:49;5.60;;;3.90;;
17345;SDS011;8790;53.590;10.002;2022-08-21T06:26:22;5.18;;;3.67;;
17345;SDS011;8790;53.590;10.002;2022-08-21T06:28:54;5.63;;;3.90;;
17345;SDS011;8790;53.590;10.002;2022-08-21T06:31:27;4.97;;;3.65;;
17345;SDS011;8790;53.590;10.002;2022-08-21T06:33:59;4.90;;;3.40;;
17345;SDS011;8790;53.590;10.002;2022-08-21T06:36:30;5.20;;;3.80;;
17345;SDS011;8790;53.590;10.002;2022-08-21T06:39:02;6.82;;;3.75;;
17345;SDS011;8790;53.590;10.002;2022-08-21T06:41:36;4.43;;;3.27;;
17345;SDS011;8790;53.590;10.002;2022-08-21T06:44:07;7.57;;;3.53;;
17345;SDS011;8790;53.590;10.002;2022-08-21T06:46:39;6.20;;;3.22;;
17345;SDS011;8790;53.590;10.002;2022-08-21T06:49:11;5.00;;;3.00;;
17345;SDS011;8790;53.590;10.002;2022-08-21T06:51:43;7.65;;;2.80;;
17345;SDS011;8790;53.590;10.002;2022-08-21T06:54:14;5.00;;;3.17;;
17345;SDS011;8790;53.590;10.002;2022-08-21T06:56:48;5.47;;;3.13;;
17345;SDS011;8790;53.590;10.002;2022-08-21T06:59:19;5.65;;;3.17;;
17345;SDS011;8790;53.590;10.002;2022-08-21T07:01:51;5.15;;;2.85;;
17345;SDS011;8790;53.590;10.002;2022-08-21T07:04:23;5.40;;;2.63;;
17345;SDS011;8790;53.590;10.002;2022-08-21T07:06:54;4.43;;;2.40;;
17345;SDS011;8790;53.590;10.002;2022-08-21T07:09:26;3.95;;;2.13;;
17345;SDS011;8790;53.590;10.002;2022-08-21T07:11:59;4.18;;;2.30;;
17345;SDS011;8790;53.590;10.002;2022-08-21T07:14:31;4.43;;;2.25;;
17345;SDS011;8790;53.590;10.002;2022-08-21T07:17:03;4.85;;;2.40;;
17345;SDS011;8790;53.590;10.002;2022-08-21T07:19:35;4.85;;;2.45;;
17345;SDS011;8790;53.590;10.002;2022-08-21T07:22:07;3.63;;;2.10;;
17345;SDS011;8790;53.590;10.002;2022-08-21T07:24:39;5.70;;;2.65;;
17345;SDS011;8790;53.590;10.002;2022-08-21T07:27:12;3.38;;;2.10;;
17345;SDS011;8790;53.590;10.002;2022-08-21T07:29:44;3.78;;;2.20;;
17345;SDS011;8790;53.590;10.002;2022-08-21T07:32:15;8.73;;;2.65;;
17345;SDS011;8790;53.590;10.002;2022-08-21T07:34:47;4.18;;;1.98;;
17345;SDS011;8790;53.590;10.002;2022-08-21T07:37:19;4.78;;;2.20;;
17345;SDS011;8790;53.590;10.002;2022-08-21T07:39:50;4.57;;;2.05;;
17345;SDS011;8790;53.590;10.002;2022-08-21T07:42:23;5.10;;;2.30;;
17345;SDS011;8790;53.590;10.002;2022-08-21T07:44:55;4.10;;;2.30;;
17345;SDS011;8790;53.590;10.002;2022-08-21T07:47:27;3.97;;;2.10;;
17345;SDS011;8790;53.590;10.002;2022-08-21T07:49:59;4.43;;;2.05;;
17345;SDS011;8790;53.590;10.002;2022-08-21T07:52:31;5.90;;;2.15;;
17345;SDS011;8790;53.590;10.002;2022-08-21T07:55:04;5.63;;;2.60;;
17345;SDS011;8790;53.590;10.002;2022-08-21T07:57:37;2.53;;;2.00;;
17345;SDS011;8790;53.590;10.002;2022-08-21T08:00:11;4.63;;;2.67;;
17345;SDS011;8790;53.590;10.002;2022-08-21T08:02:45;4.40;;;2.40;;
17345;SDS011;8790;53.590;10.002;2022-08-21T08:05:20;6.07;;;2.55;;
17345;SDS011;8790;53.590;10.002;2022-08-21T08:07:54;4.97;;;2.08;;
17345;SDS011;8790;53.590;10.002;2022-08-21T08:10:26;4.65;;;2.53;;
17345;SDS011;8790;53.590;10.002;2022-08-21T08:12:59;6.40;;;2.92;;
17345;SDS011;8790;53.590;10.002;2022-08-21T08:15:31;5.47;;;2.72;;
17345;SDS011;8790;53.590;10.002;2022-08-21T08:18:03;3.70;;;2.33;;
17345;SDS011;8790;53.590;10.002;2022-08-21T08:20:35;3.40;;;2.50;;
17345;SDS011;8790;53.590;10.002;2022-08-21T08:23:07;4.72;;;2.47;;
17345;SDS011;8790;53.590;10.002;2022-08-21T08:25:41;5.07;;;2.50;;
17345;SDS011;8790;53.590;10.002;2022-08-21T08:28:14;4.25;;;2.42;;
17345;SDS011;8790;53.590;10.002;2022-08-21T08:30:46;4.35;;;2.63;;
17345;SDS011;8790;53.590;10.002;2022-08-21T08:33:19;5.40;;;2.80;;
17345;SDS011;8790;53.590;10.002;2022-08-21T08:35:51;4.15;;;2.30;;
17345;SDS011;8790;53.590;10.002;2022-08-21T08:38:24;5.38;;;2.78;;
17345;SDS011;8790;53.590;10.002;2022-08-21T08:41:00;4.78;;;2.40;;
17345;SDS011;8790;53.590;10.002;2022-08-21T08:43:38;5.00;;;2.00;;
17345;SDS011;8790;53.590;10.002;2022-08-21T08:46:12;6.30;;;2.50;;
17345;SDS011;8790;53.590;10.002;2022-08-21T08:48:48;7.40;;;3.05;;
17345;SDS011;8790;53.590;10.002;2022-08-21T08:51:24;6.57;;;2.78;;
17345;SDS011;8790;53.590;10.002;2022-08-21T08:54:02;12.48;;;4.80;;
17345;SDS011;8790;53.590;10.002;2022-08-21T08:56:38;6.38;;;2.83;;
17345;SDS011;8790;53.590;10.002;2022-08-21T08:59:13;4.18;;;2.30;;
17345;SDS011;8790;53.590;10.002;2022-08-21T09:01:48;7.75;;;2.88;;
17345;SDS011;8790;53.590;10.002;2022-08-21T09:04:22;8.40;;;2.40;;
17345;SDS011;8790;53.590;10.002;2022-08-21T09:07:01;5.47;;;2.45;;
17345;SDS011;8790;53.590;10.002;2022-08-21T09:09:45;4.93;;;2.72;;
17345;SDS011;8790;53.590;10.002;2022-08-21T09:12:29;3.88;;;2.65;;
17345;SDS011;8790;53.590;10.002;2022-08-21T09:15:12;4.55;;;2.72;;
17345;SDS011;8790;53.590;10.002;2022-08-21T09:17:55;4.07;;;2.47;;
17345;SDS011;8790;53.590;10.002;2022-08-21T09:20:39;5.95;;;3.13;;
17345;SDS011;8790;53.590;10.002;2022-08-21T09:23:20;5.57;;;2.47;;
17345;SDS011;8790;53.590;10.002;2022-08-21T09:25:59;6.40;;;2.50;;
17345;SDS011;8790;53.590;10.002;2022-08-21T09:28:37;4.80;;;2.78;;
17345;SDS011;8790;53.590;10.002;2022-08-21T09:31:15;6.20;;;3.08;;
17345;SDS011;8790;53.590;10.002;2022-08-21T09:34:00;6.65;;;2.50;;
17345;SDS011;8790;53.590;10.002;2022-08-21T09:36:36;4.97;;;2.67;;
17345;SDS011;8790;53.590;10.002;2022-08-21T09:39:10;7.93;;;2.35;;
17345;SDS011;8790;53.590;10.002;2022-08-21T09:41:56;5.30;;;2.58;;
17345;SDS011;8790;53.590;10.002;2022-08-21T09:44:29;6.82;;;2.70;;
17345;SDS011;8790;53.590;10.002;2022-08-21T09:47:05;5.47;;;2.60;;
17345;SDS011;8790;53.590;10.002;2022-08-21T09:49:38;5.80;;;2.72;;
17345;SDS011;8790;53.590;10.002;2022-08-21T09:52:15;9.60;;;3.08;;
17345;SDS011;8790;53.590;10.002;2022-08-21T09:54:52;8.15;;;3.00;;
17345;SDS011;8790;53.590;10.002;2022-08-21T09:57:27;5.60;;;2.72;;
17345;SDS011;8790;53.590;10.002;2022-08-21T10:00:24;7.00;;;3.15;;
17345;SDS011;8790;53.590;10.002;2022-08-21T10:03:11;6.00;;;2.80;;
17345;SDS011;8790;53.590;10.002;2022-08-21T10:05:53;9.27;;;3.25;;
17345;SDS011;8790;53.590;10.002;2022-08-21T10:08:28;5.45;;;2.72;;
17345;SDS011;8790;53.590;10.002;2022-08-21T10:11:01;6.95;;;2.80;;
17345;SDS011;8790;53.590;10.002;2022-08-21T10:13:42;8.32;;;3.15;;
17345;SDS011;8790;53.590;10.002;2022-08-21T10:16:25;5.43;;;2.88;;
17345;SDS011;8790;53.590;10.002;2022-08-21T10:19:08;6.25;;;2.75;;
17345;SDS011;8790;53.590;10.002;2022-08-21T10:21:53;8.57;;;2.92;;
17345;SDS011;8790;53.590;10.002;2022-08-21T10:24:31;5.07;;;2.63;;
17345;SDS011;8790;53.590;10.002;2022-08-21T10:27:12;7.88;;;3.28;;
17345;SDS011;8790;53.590;10.002;2022-08-21T10:29:52;5.30;;;2.80;;
17345;SDS011;8790;53.590;10.002;2022-08-21T10:32:29;5.57;;;3.10;;
17345;SDS011;8790;53.590;10.002;2022-08-21T10:35:21;4.25;;;2.80;;
17345;SDS011;8790;53.590;10.002;2022-08-21T10:38:02;4.43;;;2.67;;
17345;SDS011;8790;53.590;10.002;2022-08-21T10:40:47;5.57;;;2.67;;
17345;SDS011;8790;53.590;10.002;2022-08-21T10:43:28;4.65;;;2.38;;
17345;SDS011;8790;53.590;10.002;2022-08-21T10:46:07;4.95;;;2.55;;
17345;SDS011;8790;53.590;10.002;2022-08-21T10:48:47;6.18;;;2.95;;
17345;SDS011;8790;53.590;10.002;2022-08-21T10:51:28;5.85;;;2.88;;
17345;SDS011;8790;53.590;10.002;2022-08-21T10:54:07;5.13;;;2.63;;
17345;SDS011;8790;53.590;10.002;2022-08-21T10:56:47;6.63;;;2.72;;
17345;SDS011;8790;53.590;10.002;2022-08-21T10:59:23;6.47;;;2.30;;
17345;SDS011;8790;53.590;10.002;2022-08-21T11:02:00;3.28;;;2.20;;
17345;SDS011;8790;53.590;10.002;2022-08-21T11:04:40;4.90;;;1.92;;
17345;SDS011;8790;53.590;10.002;2022-08-21T11:07:24;6.40;;;2.72;;
17345;SDS011;8790;53.590;10.002;2022-08-21T11:10:03;5.30;;;2.08;;
17345;SDS011;8790;53.590;10.002;2022-08-21T11:12:40;5.40;;;2.30;;
17345;SDS011;8790;53.590;10.002;2022-08-21T11:15:20;4.50;;;2.05;;
17345;SDS011;8790;53.590;10.002;2022-08-21T11:18:01;7.28;;;2.20;;
17345;SDS011;8790;53.590;10.002;2022-08-21T11:20:42;3.22;;;1.85;;
17345;SDS011;8790;53.590;10.002;2022-08-21T11:23:22;3.05;;;2.03;;
17345;SDS011;8790;53.590;10.002;2022-08-21T11:26:00;5.63;;;2.92;;
17345;SDS011;8790;53.590;10.002;2022-08-21T11:28:37;3.38;;;2.20;;
17345;SDS011;8790;53.590;10.002;2022-08-21T11:31:20;3.95;;;2.45;;
17345;SDS011;8790;53.590;10.002;2022-08-21T11:34:04;4.90;;;2.10;;
17345;SDS011;8790;53.590;10.002;2022-08-21T11:36:46;3.00;;;2.03;;
17345;SDS011;8790;53.590;10.002;2022-08-21T11:39:30;5.00;;;2.22;;
17345;SDS011;8790;53.590;10.002;2022-08-21T11:42:12;2.65;;;2.13;;
17345;SDS011;8790;53.590;10.002;2022-08-21T11:44:52;2.67;;;1.92;;
17345;SDS011;8790;53.590;10.002;2022-08-21T11:47:33;3.95;;;2.10;;
17345;SDS011;8790;53.590;10.002;2022-08-21T11:50:16;2.15;;;1.65;;
17345;SDS011;8790;53.590;10.002;2022-08-21T11:52:50;3.00;;;1.77;;
17345;SDS011;8790;53.590;10.002;2022-08-21T11:55:28;2.97;;;1.85;;
17345;SDS011;8790;53.590;10.002;2022-08-21T11:58:07;2.88;;;2.10;;
17345;SDS011;8790;53.590;10.002;2022-08-21T12:00:43;4.50;;;2.03;;
17345;SDS011;8790;53.590;10.002;2022-08-21T12:03:22;3.13;;;2.08;;
17345;SDS011;8790;53.590;10.002;2022-08-21T12:05:58;6.38;;;4.30;;
17345;SDS011;8790;53.590;10.002;2022-08-21T12:08:33;3.85;;;2.50;;
17345;SDS011;8790;53.590;10.002;2022-08-21T12:11:09;2.70;;;2.00;;
17345;SDS011;8790;53.590;10.002;2022-08-21T12:13:54;8.40;;;2.80;;
17345;SDS011;8790;53.590;10.002;2022-08-21T12:16:29;3.65;;;2.42;;
17345;SDS011;8790;53.590;10.002;2022-08-21T12:19:02;4.40;;;2.10;;
17345;SDS011;8790;53.590;10.002;2022-08-21T12:21:47;3.30;;;2.08;;
17345;SDS011;8790;53.590;10.002;2022-08-21T12:24:30;4.80;;;2.15;;
17345;SDS011;8790;53.590;10.002;2022-08-21T12:27:19;4.03;;;1.85;;
17345;SDS011;8790;53.590;10.002;2022-08-21T12:29:56;5.15;;;2.03;;
17345;SDS011;8790;53.590;10.002;2022-08-21T12:32:42;5.00;;;1.98;;
17345;SDS011;8790;53.590;10.002;2022-08-21T12:35:17;3.83;;;2.00;;
17345;SDS011;8790;53.590;10.002;2022-08-21T12:37:52;4.28;;;2.08;;
17345;SDS011;8790;53.590;10.002;2022-08-21T12:40:31;3.50;;;1.83;;
17345;SDS011;8790;53.590;10.002;2022-08-21T12:43:13;3.45;;;2.00;;
17345;SDS011;8790;53.590;10.002;2022-08-21T12:45:48;3.50;;;1.90;;
17345;SDS011;8790;53.590;10.002;2022-08-21T12:48:23;2.38;;;1.80;;
17345;SDS011;8790;53.590;10.002;2022-08-21T12:50:58;3.58;;;1.80;;
17345;SDS011;8790;53.590;10.002;2022-08-21T12:53:41;4.90;;;1.70;;
17345;SDS011;8790;53.590;10.002;2022-08-21T12:56:18;4.50;;;1.73;;
17345;SDS011;8790;53.590;10.002;2022-08-21T12:58:54;1.70;;;1.58;;
17345;SDS011;8790;53.590;10.002;2022-08-21T13:01:28;2.83;;;1.80;;
17345;SDS011;8790;53.590;10.002;2022-08-21T13:04:03;3.63;;;1.60;;
17345;SDS011;8790;53.590;10.002;2022-08-21T13:06:40;3.72;;;1.90;;
17345;SDS011;8790;53.590;10.002;2022-08-21T13:09:15;2.15;;;1.67;;
17345;SDS011;8790;53.590;10.002;2022-08-21T13:11:50;3.85;;;1.88;;
17345;SDS011;8790;53.590;10.002;2022-08-21T13:14:25;2.50;;;1.40;;
17345;SDS011;8790;53.590;10.002;2022-08-21T13:17:02;3.53;;;1.52;;
17345;SDS011;8790;53.590;10.002;2022-08-21T13:19:35;2.83;;;1.48;;
17345;SDS011;8790;53.590;10.002;2022-08-21T13:22:12;2.35;;;1.38;;
17345;SDS011;8790;53.590;10.002;2022-08-21T13:24:46;2.47;;;1.42;;
17345;SDS011;8790;53.590;10.002;2022-08-21T13:27:20;2.13;;;1.30;;
17345;SDS011;8790;53.590;10.002;2022-08-21T13:30:04;3.42;;;1.40;;
17345;SDS011;8790;53.590;10.002;2022-08-21T13:32:40;3.50;;;1.63;;
17345;SDS011;8790;53.590;10.002;2022-08-21T13:35:15;2.50;;;1.40;;
17345;SDS011;8790;53.590;10.002;2022-08-21T13:37:49;3.03;;;1.50;;
17345;SDS011;8790;53.590;10.002;2022-08-21T13:40:23;2.08;;;1.25;;
17345;SDS011;8790;53.590;10.002;2022-08-21T13:42:56;1.90;;;1.42;;
17345;SDS011;8790;53.590;10.002;2022-08-21T13:45:32;2.10;;;1.27;;
17345;SDS011;8790;53.590;10.002;2022-08-21T13:48:04;3.60;;;1.60;;
17345;SDS011;8790;53.590;10.002;2022-08-21T13:50:36;2.42;;;1.27;;
17345;SDS011;8790;53.590;10.002;2022-08-21T13:53:19;2.40;;;1.40;;
17345;SDS011;8790;53.590;10.002;2022-08-21T13:55:53;2.10;;;1.50;;
17345;SDS011;8790;53.590;10.002;2022-08-21T13:58:25;2.20;;;1.40;;
17345;SDS011;8790;53.590;10.002;2022-08-21T14:01:00;3.58;;;1.70;;
17345;SDS011;8790;53.590;10.002;2022-08-21T14:03:33;1.70;;;1.30;;
17345;SDS011;8790;53.590;10.002;2022-08-21T14:06:11;3.00;;;1.45;;
17345;SDS011;8790;53.590;10.002;2022-08-21T14:08:47;2.00;;;1.50;;
17345;SDS011;8790;53.590;10.002;2022-08-21T14:11:20;2.65;;;1.52;;
17345;SDS011;8790;53.590;10.002;2022-08-21T14:13:56;2.33;;;1.42;;
17345;SDS011;8790;53.590;10.002;2022-08-21T14:16:41;2.92;;;1.40;;
17345;SDS011;8790;53.590;10.002;2022-08-21T14:19:18;2.75;;;1.60;;
17345;SDS011;8790;53.590;10.002;2022-08-21T14:21:52;2.65;;;1.67;;
17345;SDS011;8790;53.590;10.002;2022-08-21T14:24:25;3.30;;;1.60;;
17345;SDS011;8790;53.590;10.002;2022-08-21T14:27:01;3.40;;;1.80;;
17345;SDS011;8790;53.590;10.002;2022-08-21T14:29:36;3.20;;;1.52;;
17345;SDS011;8790;53.590;10.002;2022-08-21T14:32:12;2.22;;;1.38;;
17345;SDS011;8790;53.590;10.002;2022-08-21T14:34:47;2.53;;;1.50;;
17345;SDS011;8790;53.590;10.002;2022-08-21T14:37:19;2.90;;;1.35;;
17345;SDS011;8790;53.590;10.002;2022-08-21T14:39:51;3.42;;;1.60;;
17345;SDS011;8790;53.590;10.002;2022-08-21T14:42:23;3.03;;;1.65;;
17345;SDS011;8790;53.590;10.002;2022-08-21T14:44:56;2.10;;;1.40;;
17345;SDS011;8790;53.590;10.002;2022-08-21T14:47:33;1.45;;;1.20;;
17345;SDS011;8790;53.590;10.002;2022-08-21T14:50:05;3.40;;;1.45;;
17345;SDS011;8790;53.590;10.002;2022-08-21T14:52:37;2.03;;;1.23;;
17345;SDS011;8790;53.590;10.002;2022-08-21T14:55:10;4.25;;;1.52;;
17345;SDS011;8790;53.590;10.002;2022-08-21T14:57:44;2.10;;;1.30;;
17345;SDS011;8790;53.590;10.002;2022-08-21T15:00:19;4.10;;;1.70;;
17345;SDS011;8790;53.590;10.002;2022-08-21T15:02:54;2.35;;;1.40;;
17345;SDS011;8790;53.590;10.002;2022-08-21T15:05:26;5.18;;;1.50;;
17345;SDS011;8790;53.590;10.002;2022-08-21T15:07:58;2.42;;;1.60;;
17345;SDS011;8790;53.590;10.002;2022-08-21T15:10:30;3.47;;;1.80;;
17345;SDS011;8790;53.590;10.002;2022-08-21T15:13:03;3.17;;;1.52;;
17345;SDS011;8790;53.590;10.002;2022-08-21T15:15:38;2.15;;;1.20;;
17345;SDS011;8790;53.590;10.002;2022-08-21T15:18:13;3.75;;;1.33;;
17345;SDS011;8790;53.590;10.002;2022-08-21T15:20:45;3.45;;;1.48;;
17345;SDS011;8790;53.590;10.002;2022-08-21T15:23:17;2.88;;;1.30;;
17345;SDS011;8790;53.590;10.002;2022-08-21T15:25:49;3.13;;;1.30;;
17345;SDS011;8790;53.590;10.002;2022-08-21T15:28:23;1.88;;;1.42;;
17345;SDS011;8790;53.590;10.002;2022-08-21T15:30:55;2.65;;;1.90;;
17345;SDS011;8790;53.590;10.002;2022-08-21T15:33:29;4.88;;;1.70;;